createdAt,value
2017-11-30T00:01:25.308Z,97.45
2017-11-30T00:03:52.832Z,95.62
2017-11-30T00:06:21.083Z,99.65
2017-11-30T00:08:48.600Z,115.22
2017-11-30T00:11:16.101Z,135.12
2017-11-30T00:13:43.579Z,105.35
2017-11-30T00:16:11.816Z,92.50
2017-11-30T00:18:39.336Z,116.18
2017-11-30T00:21:06.823Z,89.65
2017-11-30T00:23:34.314Z,82.07
2017-11-30T00:26:01.854Z,80.18
2017-11-30T00:28:29.343Z,97.57
2017-11-30T00:30:56.888Z,92.30
2017-11-30T00:33:24.440Z,71.72
2017-11-30T00:35:51.952Z,75.00
2017-11-30T00:38:19.541Z,82.47
2017-11-30T00:40:47.054Z,77.62
2017-11-30T00:43:37.112Z,77.35
2017-11-30T00:46:04.613Z,84.65
2017-11-30T00:48:32.123Z,74.30
2017-11-30T00:50:59.617Z,54.03
2017-11-30T00:53:27.915Z,63.65
2017-11-30T00:55:55.459Z,57.65
2017-11-30T00:58:23.720Z,65.30
2017-11-30T01:00:52.032Z,66.75
2017-11-30T01:03:19.518Z,80.80
2017-11-30T01:05:47.027Z,70.20
2017-11-30T01:08:14.566Z,63.22
2017-11-30T01:10:42.039Z,55.20
2017-11-30T01:13:09.525Z,55.40
2017-11-30T01:15:37.017Z,61.03
2017-11-30T01:18:04.513Z,62.15
2017-11-30T01:20:32.762Z,48.83
2017-11-30T01:23:00.276Z,53.95
2017-11-30T01:25:27.766Z,58.08
2017-11-30T01:27:55.295Z,53.38
2017-11-30T01:30:22.795Z,55.53
2017-11-30T01:32:50.346Z,55.92
2017-11-30T01:35:17.839Z,44.22
2017-11-30T01:40:41.981Z,49.65
2017-11-30T01:43:09.435Z,53.92
2017-11-30T01:45:37.320Z,52.42
2017-11-30T01:59:15.385Z,39.47
2017-11-30T02:01:42.976Z,47.53
2017-11-30T02:04:10.460Z,44.28
2017-11-30T02:06:38.728Z,46.42
2017-11-30T02:09:07.000Z,43.33
2017-11-30T02:11:34.537Z,43.90
2017-11-30T02:14:02.096Z,46.50
2017-11-30T02:16:29.653Z,45.35
2017-11-30T02:18:57.189Z,40.58
2017-11-30T02:21:24.680Z,44.17
2017-11-30T02:23:52.204Z,42.08
2017-11-30T02:26:19.720Z,41.08
2017-11-30T02:28:47.256Z,40.78
2017-11-30T02:31:14.781Z,33.55
2017-11-30T02:33:44.134Z,38.72
2017-11-30T02:36:11.667Z,38.03
2017-11-30T02:38:39.159Z,43.67
2017-11-30T02:41:06.669Z,36.00
2017-11-30T02:43:34.152Z,42.03
2017-11-30T02:46:01.659Z,45.47
2017-11-30T02:48:29.888Z,46.78
2017-11-30T02:50:57.420Z,55.83
2017-11-30T02:53:24.904Z,49.88
2017-11-30T02:55:52.400Z,52.53
2017-11-30T02:58:19.954Z,74.12
2017-11-30T03:00:47.476Z,59.22
2017-11-30T03:03:14.986Z,52.85
2017-11-30T03:05:42.495Z,68.65
2017-11-30T03:08:10.012Z,100.22
2017-11-30T03:10:37.536Z,88.22
2017-11-30T03:13:05.789Z,63.10
2017-11-30T03:15:33.272Z,49.20
2017-11-30T03:18:01.544Z,64.78
2017-11-30T03:20:29.822Z,51.65
2017-11-30T03:22:58.083Z,90.90
2017-11-30T03:25:26.357Z,75.05
2017-11-30T03:27:53.876Z,106.03
2017-11-30T03:30:21.380Z,73.80
2017-11-30T03:32:49.660Z,55.78
2017-11-30T03:35:17.953Z,60.80
2017-11-30T03:37:45.429Z,66.90
2017-11-30T03:40:12.930Z,63.45
2017-11-30T03:42:40.450Z,160.75
2017-11-30T03:45:07.977Z,221.23
2017-11-30T03:47:36.281Z,115.90
2017-11-30T03:50:03.762Z,125.50
2017-11-30T03:52:31.244Z,66.05
2017-11-30T03:54:58.737Z,78.85
2017-11-30T03:57:26.237Z,137.00
2017-11-30T03:59:53.794Z,123.43
2017-11-30T04:02:21.303Z,83.25
2017-11-30T04:04:48.811Z,64.35
2017-11-30T04:07:16.303Z,41.58
2017-11-30T04:09:44.589Z,33.92
2017-11-30T04:12:12.866Z,41.55
2017-11-30T04:14:41.121Z,70.00
2017-11-30T04:17:08.616Z,67.20
2017-11-30T04:19:36.103Z,48.55
2017-11-30T04:22:03.584Z,66.30
2017-11-30T04:24:31.066Z,127.25
2017-11-30T04:26:59.342Z,67.50
2017-11-30T04:29:27.620Z,73.80
2017-11-30T04:31:55.870Z,68.50
2017-11-30T04:34:23.401Z,45.00
2017-11-30T04:36:50.888Z,34.25
2017-11-30T04:39:18.400Z,65.95
2017-11-30T04:41:45.877Z,52.55
2017-11-30T04:44:13.362Z,45.55
2017-11-30T04:46:40.920Z,33.80
2017-11-30T04:49:08.442Z,49.30
2017-11-30T04:51:35.939Z,30.05
2017-11-30T04:54:03.454Z,30.52
2017-11-30T04:56:30.947Z,33.47
2017-11-30T04:58:58.477Z,29.70
2017-11-30T05:01:26.031Z,32.72
2017-11-30T05:03:53.540Z,36.47
2017-11-30T05:06:21.095Z,24.33
2017-11-30T05:08:48.592Z,30.10
2017-11-30T05:11:16.152Z,49.70
2017-11-30T05:13:43.652Z,43.47
2017-11-30T05:16:11.119Z,39.08
2017-11-30T05:18:38.622Z,53.22
2017-11-30T05:21:06.923Z,53.97
2017-11-30T05:23:34.451Z,45.47
2017-11-30T05:26:02.694Z,82.07
2017-11-30T05:28:30.175Z,95.20
2017-11-30T05:30:58.508Z,108.30
2017-11-30T05:33:26.005Z,89.55
2017-11-30T05:35:54.301Z,66.10
2017-11-30T05:38:21.825Z,63.67
2017-11-30T05:40:49.320Z,110.53
2017-11-30T05:43:17.612Z,131.10
2017-11-30T05:45:45.134Z,171.30
2017-11-30T05:48:12.646Z,43.10
2017-11-30T05:50:40.184Z,121.37
2017-11-30T05:53:07.692Z,71.50
2017-11-30T05:55:35.170Z,28.35
2017-11-30T05:58:03.477Z,50.70
2017-11-30T06:00:30.992Z,70.12
2017-11-30T06:02:58.637Z,42.03
2017-11-30T06:05:26.155Z,42.85
2017-11-30T06:07:53.724Z,54.33
2017-11-30T06:10:21.318Z,32.53
2017-11-30T06:12:48.876Z,39.95
2017-11-30T06:15:16.485Z,32.22
2017-11-30T06:17:44.009Z,42.65
2017-11-30T06:20:11.573Z,41.37
2017-11-30T06:22:39.145Z,41.13
2017-11-30T06:25:07.508Z,32.50
2017-11-30T06:27:35.073Z,30.08
2017-11-30T06:30:02.681Z,29.23
2017-11-30T06:32:30.198Z,25.35
2017-11-30T06:34:58.487Z,20.62
2017-11-30T06:37:26.800Z,22.77
2017-11-30T06:39:54.327Z,20.00
2017-11-30T06:42:21.887Z,20.65
2017-11-30T06:44:49.433Z,24.55
2017-11-30T06:47:16.923Z,29.33
2017-11-30T06:49:44.485Z,26.80
2017-11-30T06:52:12.034Z,24.55
2017-11-30T06:54:39.626Z,21.48
2017-11-30T06:57:07.151Z,24.00
2017-11-30T06:59:34.672Z,23.55
2017-11-30T07:02:02.222Z,22.75
2017-11-30T07:04:29.752Z,23.27
2017-11-30T07:06:57.296Z,31.00
2017-11-30T07:09:24.829Z,27.35
2017-11-30T07:11:52.348Z,30.67
2017-11-30T07:14:19.948Z,27.02
2017-11-30T07:16:48.380Z,27.98
2017-11-30T07:19:15.947Z,23.90
2017-11-30T07:21:43.475Z,30.00
2017-11-30T07:24:11.009Z,28.02
2017-11-30T07:26:39.323Z,24.00
2017-11-30T07:29:06.841Z,27.98
2017-11-30T07:31:35.157Z,32.00
2017-11-30T07:34:02.670Z,28.48
2017-11-30T07:36:30.178Z,28.30
2017-11-30T07:38:57.724Z,29.08
2017-11-30T07:41:25.304Z,31.70
2017-11-30T07:43:52.839Z,31.45
2017-11-30T07:46:20.341Z,27.00
2017-11-30T07:48:47.844Z,32.63
2017-11-30T07:51:15.376Z,25.65
2017-11-30T07:53:43.680Z,27.15
2017-11-30T07:56:12.004Z,25.05
2017-11-30T07:58:39.644Z,27.67
2017-11-30T08:01:07.139Z,26.83
2017-11-30T08:03:34.638Z,28.27
2017-11-30T08:06:02.142Z,29.35
2017-11-30T08:08:29.664Z,28.33
2017-11-30T08:10:57.244Z,35.10
2017-11-30T08:13:24.774Z,26.55
2017-11-30T08:15:53.032Z,24.90
2017-11-30T08:18:20.542Z,27.10
2017-11-30T08:20:48.077Z,29.42
2017-11-30T08:23:15.580Z,24.45
2017-11-30T08:25:43.059Z,23.27
2017-11-30T08:28:10.628Z,25.83
2017-11-30T08:30:39.896Z,24.37
2017-11-30T08:33:07.411Z,25.20
2017-11-30T08:35:34.941Z,26.05
2017-11-30T08:38:03.200Z,28.02
2017-11-30T08:40:30.685Z,22.80
2017-11-30T08:42:58.935Z,28.40
2017-11-30T08:45:26.461Z,26.70
2017-11-30T08:47:54.013Z,28.92
2017-11-30T08:50:21.546Z,25.15
2017-11-30T08:52:49.021Z,26.42
2017-11-30T08:55:16.525Z,26.35
2017-11-30T08:57:44.053Z,24.77
2017-11-30T09:00:11.560Z,23.38
2017-11-30T09:02:39.181Z,22.30
2017-11-30T09:05:06.681Z,24.52
2017-11-30T09:07:34.987Z,22.37
2017-11-30T09:10:02.500Z,25.35
2017-11-30T09:12:29.987Z,19.10
2017-11-30T09:14:58.225Z,18.55
2017-11-30T09:17:25.733Z,20.70
2017-11-30T09:19:53.208Z,17.45
2017-11-30T09:22:20.688Z,16.67
2017-11-30T09:24:48.179Z,18.35
2017-11-30T09:27:16.465Z,21.15
2017-11-30T09:29:44.712Z,14.93
2017-11-30T09:32:12.216Z,16.50
2017-11-30T09:34:39.718Z,18.30
2017-11-30T09:37:07.201Z,16.67
2017-11-30T09:39:34.704Z,15.05
2017-11-30T09:42:02.202Z,14.25
2017-11-30T09:44:34.432Z,15.52
2017-11-30T09:47:01.961Z,15.77
2017-11-30T09:49:33.119Z,12.13
2017-11-30T09:52:03.548Z,12.68
2017-11-30T09:54:31.023Z,18.20
2017-11-30T09:56:58.523Z,14.80
2017-11-30T09:59:26.040Z,14.00
2017-11-30T10:01:53.547Z,13.00
2017-11-30T10:04:21.079Z,13.15
2017-11-30T10:06:48.548Z,8.75
2017-11-30T10:09:16.046Z,10.48
2017-11-30T10:11:44.311Z,9.27
2017-11-30T10:14:11.813Z,10.23
2017-11-30T10:16:39.310Z,10.85
2017-11-30T10:19:06.811Z,9.05
2017-11-30T10:21:34.296Z,9.57
2017-11-30T10:24:01.775Z,7.50
2017-11-30T10:26:29.282Z,11.38
2017-11-30T10:28:56.763Z,7.75
2017-11-30T10:31:24.297Z,8.15
2017-11-30T10:33:51.784Z,10.00
2017-11-30T10:36:19.327Z,7.40
2017-11-30T10:38:46.877Z,7.15
2017-11-30T10:41:14.386Z,9.00
2017-11-30T10:43:41.898Z,8.93
2017-11-30T10:46:09.408Z,9.30
2017-11-30T10:48:36.900Z,11.77
2017-11-30T10:51:05.195Z,7.15
2017-11-30T10:53:32.672Z,8.73
2017-11-30T10:56:00.152Z,8.57
2017-11-30T10:58:27.652Z,8.43
2017-11-30T11:00:55.165Z,9.98
2017-11-30T11:03:22.640Z,8.93
2017-11-30T11:05:50.914Z,6.72
2017-11-30T11:08:18.417Z,8.50
2017-11-30T11:10:45.903Z,6.70
2017-11-30T11:13:13.393Z,7.30
2017-11-30T11:15:41.664Z,13.82
2017-11-30T11:18:09.167Z,7.78
2017-11-30T11:20:36.700Z,9.13
2017-11-30T11:23:04.982Z,5.70
2017-11-30T11:25:33.233Z,8.25
2017-11-30T11:28:00.774Z,10.30
2017-11-30T11:30:28.264Z,6.30
2017-11-30T11:32:55.748Z,5.55
2017-11-30T11:35:24.131Z,5.93
2017-11-30T11:37:51.598Z,6.78
2017-11-30T11:40:19.343Z,5.90
2017-11-30T11:42:46.852Z,4.72
2017-11-30T11:45:14.407Z,5.22
2017-11-30T11:47:41.899Z,8.75
2017-11-30T11:50:10.157Z,5.45
2017-11-30T11:52:37.668Z,3.95
2017-11-30T11:55:05.153Z,5.30
2017-11-30T11:57:32.628Z,4.47
2017-11-30T12:00:00.161Z,5.43
2017-11-30T12:02:27.662Z,7.40
2017-11-30T12:04:55.668Z,4.03
2017-11-30T12:07:39.061Z,2.65
2017-11-30T12:10:06.578Z,2.47
2017-11-30T12:12:34.084Z,4.12
2017-11-30T12:15:01.592Z,3.20
2017-11-30T12:17:29.101Z,3.58
2017-11-30T12:19:57.335Z,3.87
2017-11-30T12:22:24.859Z,3.75
2017-11-30T12:24:52.343Z,6.50
2017-11-30T12:27:20.349Z,3.95
2017-11-30T12:29:47.833Z,5.30
2017-11-30T12:32:16.104Z,4.45
2017-11-30T12:34:44.421Z,3.10
2017-11-30T12:37:11.973Z,4.68
2017-11-30T12:39:40.214Z,2.58
2017-11-30T12:42:08.455Z,3.92
2017-11-30T12:44:35.961Z,2.97
2017-11-30T12:47:03.469Z,3.42
2017-11-30T12:49:30.964Z,3.58
2017-11-30T12:51:59.255Z,3.40
2017-11-30T12:54:26.722Z,2.42
2017-11-30T12:56:54.210Z,6.62
2017-11-30T12:59:21.703Z,4.00
2017-11-30T13:01:49.229Z,4.93
2017-11-30T13:04:16.701Z,3.83
2017-11-30T13:06:44.200Z,7.20
2017-11-30T13:09:12.473Z,1.92
2017-11-30T13:11:40.748Z,5.60
2017-11-30T13:14:08.270Z,2.60
2017-11-30T13:16:35.774Z,5.57
2017-11-30T13:19:03.267Z,4.70
2017-11-30T13:21:30.816Z,3.37
2017-11-30T13:23:58.326Z,5.37
2017-11-30T13:26:25.806Z,4.05
2017-11-30T13:28:53.293Z,4.50
2017-11-30T13:31:20.774Z,3.22
2017-11-30T13:33:48.292Z,6.95
2017-11-30T13:36:15.795Z,5.10
2017-11-30T13:38:43.296Z,4.03
2017-11-30T13:41:11.568Z,3.17
2017-11-30T13:43:39.322Z,4.22
2017-11-30T13:46:24.789Z,3.65
2017-11-30T13:48:52.241Z,5.50
2017-11-30T13:51:19.725Z,6.90
2017-11-30T13:53:48.044Z,5.85
2017-11-30T13:56:15.511Z,4.37
2017-11-30T13:58:44.501Z,7.25
2017-11-30T14:01:11.984Z,4.62
2017-11-30T14:03:39.474Z,3.65
2017-11-30T14:06:06.966Z,3.15
2017-11-30T14:08:34.436Z,2.15
2017-11-30T14:11:01.918Z,9.27
2017-11-30T14:13:29.439Z,3.67
2017-11-30T14:15:56.925Z,3.00
2017-11-30T14:18:24.394Z,4.18
2017-11-30T14:20:51.863Z,4.50
2017-11-30T14:23:21.968Z,6.40
2017-11-30T14:48:51.313Z,6.37
2017-11-30T14:51:18.779Z,6.82
2017-11-30T14:53:46.243Z,4.78
2017-11-30T14:56:13.773Z,3.45
2017-11-30T14:58:41.297Z,3.87
2017-11-30T15:01:25.937Z,5.40
2017-11-30T15:03:54.319Z,3.70
2017-11-30T15:06:21.875Z,5.93
2017-11-30T15:08:50.192Z,4.37
2017-11-30T15:11:18.632Z,4.68
2017-11-30T15:13:46.896Z,3.40
2017-11-30T15:16:14.398Z,6.00
2017-11-30T15:18:43.373Z,5.80
2017-11-30T15:21:10.873Z,4.37
2017-11-30T15:23:38.400Z,4.20
2017-11-30T15:26:05.889Z,4.65
2017-11-30T15:28:33.394Z,5.68
2017-11-30T15:31:01.632Z,6.00
2017-11-30T15:33:29.170Z,5.25
2017-11-30T15:36:00.505Z,6.05
2017-11-30T15:38:28.051Z,6.35
2017-11-30T15:41:01.953Z,3.62
2017-11-30T15:43:29.466Z,2.35
2017-11-30T15:45:56.961Z,2.20
2017-11-30T15:48:25.245Z,5.07
2017-11-30T15:50:52.769Z,3.00
2017-11-30T15:53:20.272Z,5.43
2017-11-30T15:55:47.755Z,3.22
2017-11-30T15:58:15.253Z,3.85
2017-11-30T16:00:42.753Z,5.68
2017-11-30T16:03:10.331Z,3.85
2017-11-30T16:05:46.291Z,3.75
2017-11-30T16:08:13.805Z,3.92
2017-11-30T16:10:44.387Z,3.62
2017-11-30T16:13:13.304Z,2.45
2017-11-30T16:15:40.823Z,2.72
2017-11-30T16:18:08.316Z,3.53
2017-11-30T16:20:39.401Z,3.15
2017-11-30T16:23:13.028Z,3.00
2017-11-30T16:25:40.528Z,2.70
2017-11-30T16:28:08.003Z,6.62
2017-11-30T16:30:36.271Z,3.47
2017-11-30T16:33:04.791Z,2.95
2017-11-30T17:04:14.951Z,5.57
2017-11-30T17:06:42.572Z,6.62
2017-11-30T17:09:10.886Z,5.30
2017-11-30T17:11:38.415Z,6.30
2017-11-30T17:14:05.963Z,6.28
2017-11-30T17:16:34.307Z,9.60
2017-11-30T17:19:01.831Z,7.00
2017-11-30T17:21:29.366Z,7.37
2017-11-30T17:23:56.918Z,10.65
2017-11-30T17:26:25.203Z,7.57
2017-11-30T17:28:53.466Z,9.63
2017-11-30T17:31:21.767Z,7.97
2017-11-30T17:33:49.249Z,8.63
2017-11-30T17:36:16.771Z,7.40
2017-11-30T17:38:45.070Z,7.85
2017-11-30T17:41:12.634Z,8.38
2017-11-30T17:43:40.143Z,9.63
2017-11-30T17:46:07.657Z,8.88
2017-11-30T17:48:35.162Z,8.90
2017-11-30T17:51:02.680Z,8.57
2017-11-30T17:53:30.198Z,8.77
2017-11-30T17:55:58.465Z,9.25
2017-11-30T17:58:26.012Z,8.57
2017-11-30T18:00:53.511Z,9.27
2017-11-30T18:03:20.998Z,8.25
2017-11-30T18:05:48.560Z,9.32
2017-11-30T18:08:16.059Z,9.40
2017-11-30T18:10:44.362Z,11.80
2017-11-30T18:13:11.858Z,9.23
2017-11-30T18:15:39.360Z,8.25
2017-11-30T18:18:06.873Z,7.57
2017-11-30T18:20:34.385Z,11.25
2017-11-30T18:23:01.923Z,11.07
2017-11-30T18:25:29.409Z,9.82
2017-11-30T18:27:57.010Z,9.48
2017-11-30T18:30:25.421Z,10.77
2017-11-30T18:32:52.948Z,9.25
2017-11-30T18:38:26.958Z,10.48
2017-11-30T18:40:58.178Z,10.63
2017-11-30T18:43:31.279Z,11.95
2017-11-30T18:45:58.871Z,11.05
2017-11-30T18:54:32.120Z,12.10
2017-11-30T19:06:25.074Z,9.68
2017-11-30T19:08:54.707Z,12.80
2017-11-30T19:11:22.975Z,12.93
2017-11-30T19:13:50.515Z,13.62
2017-11-30T19:19:17.194Z,13.07
2017-11-30T19:21:45.159Z,14.43
2017-11-30T19:24:14.564Z,11.18
2017-11-30T19:26:42.079Z,12.27
2017-11-30T19:29:12.633Z,12.77
2017-11-30T19:43:01.988Z,11.18
2017-11-30T19:45:30.333Z,11.40
2017-11-30T19:48:03.871Z,12.37
2017-11-30T19:50:32.344Z,14.65
2017-11-30T19:53:00.610Z,12.45
2017-11-30T19:55:28.159Z,12.85
2017-11-30T19:57:55.664Z,17.62
2017-11-30T20:00:23.176Z,14.57
2017-11-30T20:02:50.697Z,18.35
2017-11-30T20:05:18.251Z,23.67
2017-11-30T20:07:45.738Z,20.08
2017-11-30T20:10:13.263Z,15.00
2017-11-30T20:12:40.763Z,17.75
2017-11-30T20:15:08.275Z,16.00
2017-11-30T20:17:35.756Z,14.15
2017-11-30T20:20:03.217Z,17.00
2017-11-30T20:22:30.839Z,15.65
2017-11-30T20:24:58.329Z,14.10
2017-11-30T20:27:25.814Z,17.50
2017-11-30T20:29:53.339Z,13.98
2017-11-30T20:32:20.874Z,14.25
2017-11-30T20:34:48.404Z,16.62
2017-11-30T20:37:16.673Z,14.10
2017-11-30T20:39:44.155Z,15.90
2017-11-30T20:42:12.467Z,38.47
2017-11-30T20:44:40.011Z,18.73
2017-11-30T20:47:07.510Z,16.67
2017-11-30T20:49:35.038Z,19.73
2017-11-30T20:52:02.554Z,18.55
2017-11-30T20:54:30.799Z,24.25
2017-11-30T20:56:58.320Z,21.15
2017-11-30T20:59:25.830Z,22.40
2017-11-30T21:01:53.434Z,23.65
2017-11-30T21:04:20.993Z,25.12
2017-11-30T21:06:48.515Z,29.90
2017-11-30T21:09:16.022Z,22.95
2017-11-30T21:11:43.567Z,21.50
2017-11-30T21:14:11.085Z,24.50
2017-11-30T21:16:38.585Z,22.33
2017-11-30T21:19:06.899Z,21.90
2017-11-30T21:21:34.383Z,25.30
2017-11-30T21:24:01.950Z,25.05
2017-11-30T21:26:30.226Z,21.00
2017-11-30T21:28:57.780Z,24.50
2017-11-30T21:31:25.339Z,22.90
2017-11-30T21:33:52.821Z,20.90
2017-11-30T21:36:21.134Z,25.48
2017-11-30T21:38:51.615Z,27.40
2017-11-30T21:41:19.948Z,37.25
2017-11-30T21:43:59.397Z,32.83
2017-11-30T21:46:26.888Z,31.45
2017-11-30T21:48:55.138Z,27.98
2017-11-30T21:51:22.648Z,30.33
2017-11-30T21:53:50.197Z,32.00
2017-11-30T21:56:17.694Z,32.17
2017-11-30T21:58:45.254Z,30.95
2017-11-30T22:01:12.814Z,36.17
2017-11-30T22:03:40.355Z,27.37
2017-11-30T22:06:07.905Z,32.35
2017-11-30T22:08:35.389Z,37.78
2017-11-30T22:11:02.926Z,34.58
2017-11-30T22:13:36.555Z,32.15
2017-11-30T22:16:04.055Z,34.72
2017-11-30T22:18:31.599Z,37.72
2017-11-30T22:24:00.036Z,34.53
2017-11-30T22:26:27.579Z,38.00
2017-11-30T22:28:55.123Z,39.20
2017-11-30T22:31:22.594Z,33.78
2017-11-30T22:33:50.151Z,41.53
2017-11-30T22:36:17.693Z,42.60
2017-11-30T22:38:45.262Z,40.12
2017-11-30T22:41:13.506Z,34.00
2017-11-30T22:43:41.765Z,41.63
2017-11-30T22:46:09.301Z,38.20
2017-11-30T22:48:36.852Z,39.90
2017-11-30T22:51:04.408Z,38.45
2017-11-30T22:53:32.670Z,41.47
2017-11-30T22:56:00.964Z,41.85
2017-11-30T22:58:29.279Z,48.25
2017-11-30T23:00:56.854Z,47.13
2017-11-30T23:03:24.426Z,43.38
2017-11-30T23:05:53.273Z,45.45
2017-11-30T23:08:34.168Z,44.88
2017-11-30T23:11:01.693Z,42.33
2017-11-30T23:13:30.313Z,46.40
2017-11-30T23:15:57.928Z,42.45
2017-11-30T23:21:28.976Z,39.17
2017-11-30T23:23:58.405Z,35.78
2017-11-30T23:26:43.334Z,36.88
2017-11-30T23:32:13.820Z,36.13
2017-11-30T23:34:41.431Z,36.80
2017-11-30T23:46:33.702Z,33.08
2017-11-30T23:52:03.729Z,29.87
2017-11-30T23:54:31.322Z,35.05
